sensor_id;sensor_type;location;lat;lon;timestamp;pressure;altitude;pressure_sealevel;temperature;humidity
45621;BME280;31345;51.522;10.702;2023-06-19T00:00:16;98785.97;;;17.37;100.00
45621;BME280;31345;51.522;10.702;2023-06-19T00:02:51;98785.81;;;17.39;100.00
45621;BME280;31345;51.522;10.702;2023-06-19T00:05:25;98784.91;;;17.30;100.00
45621;BME280;31345;51.522;10.702;2023-06-19T00:07:58;98784.53;;;17.24;100.00
45621;BME280;31345;51.522;10.702;2023-06-19T00:10:31;98784.47;;;17.16;100.00
45621;BME280;31345;51.522;10.702;2023-06-19T00:12:59;98777.69;;;17.14;100.00
45621;BME280;31345;51.522;10.702;2023-06-19T00:15:27;98785.97;;;17.19;100.00
45621;BME280;31345;51.522;10.702;2023-06-19T00:18:00;98773.69;;;17.09;100.00
45621;BME280;31345;51.522;10.702;2023-06-19T00:20:33;98774.13;;;17.05;100.00
45621;BME280;31345;51.522;10.702;2023-06-19T00:23:06;98770.19;;;16.91;100.00
45621;BME280;31345;51.522;10.702;2023-06-19T00:25:37;98760.47;;;16.91;100.00
45621;BME280;31345;51.522;10.702;2023-06-19T00:28:10;98767.84;;;16.88;100.00
45621;BME280;31345;51.522;10.702;2023-06-19T00:30:46;98767.78;;;16.79;100.00
45621;BME280;31345;51.522;10.702;2023-06-19T00:33:14;98770.03;;;16.74;100.00
45621;BME280;31345;51.522;10.702;2023-06-19T00:35:50;98759.84;;;16.79;100.00
45621;BME280;31345;51.522;10.702;2023-06-19T00:38:24;98760.25;;;16.84;100.00
45621;BME280;31345;51.522;10.702;2023-06-19T00:40:56;98755.56;;;16.78;100.00
45621;BME280;31345;51.522;10.702;2023-06-19T00:43:29;98754.72;;;16.78;100.00
45621;BME280;31345;51.522;10.702;2023-06-19T00:46:03;98756.16;;;16.72;100.00
45621;BME280;31345;51.522;10.702;2023-06-19T00:48:31;98749.34;;;16.69;100.00
45621;BME280;31345;51.522;10.702;2023-06-19T00:51:06;98749.97;;;16.63;100.00
45621;BME280;31345;51.522;10.702;2023-06-19T00:53:38;98753.28;;;16.65;100.00
45621;BME280;31345;51.522;10.702;2023-06-19T00:56:10;98752.91;;;16.60;100.00
45621;BME280;31345;51.522;10.702;2023-06-19T00:58:42;98751.69;;;16.72;100.00
45621;BME280;31345;51.522;10.702;2023-06-19T01:01:10;98749.75;;;16.75;100.00
45621;BME280;31345;51.522;10.702;2023-06-19T01:03:43;98751.03;;;16.70;100.00
45621;BME280;31345;51.522;10.702;2023-06-19T01:06:20;98741.84;;;16.75;100.00
45621;BME280;31345;51.522;10.702;2023-06-19T01:08:58;98729.78;;;16.72;100.00
45621;BME280;31345;51.522;10.702;2023-06-19T01:11:36;98728.63;;;16.56;100.00
45621;BME280;31345;51.522;10.702;2023-06-19T01:14:08;98721.81;;;16.54;100.00
45621;BME280;31345;51.522;10.702;2023-06-19T01:16:41;98717.53;;;16.53;100.00
45621;BME280;31345;51.522;10.702;2023-06-19T01:19:10;98716.53;;;16.54;100.00
45621;BME280;31345;51.522;10.702;2023-06-19T01:21:41;98705.97;;;16.54;100.00
45621;BME280;31345;51.522;10.702;2023-06-19T01:24:15;98701.69;;;16.53;100.00
45621;BME280;31345;51.522;10.702;2023-06-19T01:26:48;98686.13;;;16.31;100.00
45621;BME280;31345;51.522;10.702;2023-06-19T01:29:16;98683.81;;;16.28;100.00
45621;BME280;31345;51.522;10.702;2023-06-19T01:31:50;98694.22;;;16.30;100.00
45621;BME280;31345;51.522;10.702;2023-06-19T01:34:25;98697.94;;;16.27;100.00
45621;BME280;31345;51.522;10.702;2023-06-19T01:36:58;98690.75;;;16.19;100.00
45621;BME280;31345;51.522;10.702;2023-06-19T01:39:28;98687.13;;;16.20;100.00
45621;BME280;31345;51.522;10.702;2023-06-19T01:41:56;98686.69;;;16.25;100.00
45621;BME280;31345;51.522;10.702;2023-06-19T01:44:29;98675.56;;;16.31;100.00
45621;BME280;31345;51.522;10.702;2023-06-19T01:46:56;98683.19;;;16.35;100.00
45621;BME280;31345;51.522;10.702;2023-06-19T01:49:24;98680.63;;;16.43;100.00
45621;BME280;31345;51.522;10.702;2023-06-19T01:51:57;98678.69;;;16.45;100.00
45621;BME280;31345;51.522;10.702;2023-06-19T01:54:33;98684.06;;;16.53;100.00
45621;BME280;31345;51.522;10.702;2023-06-19T01:57:06;98675.22;;;16.63;100.00
45621;BME280;31345;51.522;10.702;2023-06-19T01:59:34;98684.56;;;16.75;100.00
45621;BME280;31345;51.522;10.702;2023-06-19T02:02:01;98688.28;;;16.82;100.00
45621;BME280;31345;51.522;10.702;2023-06-19T02:04:30;98690.75;;;16.84;100.00
45621;BME280;31345;51.522;10.702;2023-06-19T02:07:02;98701.69;;;16.89;100.00
45621;BME280;31345;51.522;10.702;2023-06-19T02:09:38;98701.25;;;16.94;100.00
45621;BME280;31345;51.522;10.702;2023-06-19T02:12:10;98698.59;;;16.94;100.00
45621;BME280;31345;51.522;10.702;2023-06-19T02:14:43;98699.91;;;16.90;100.00
45621;BME280;31345;51.522;10.702;2023-06-19T02:17:17;98701.47;;;16.82;100.00
45621;BME280;31345;51.522;10.702;2023-06-19T02:19:44;98698.09;;;16.90;100.00
45621;BME280;31345;51.522;10.702;2023-06-19T02:22:12;98709.03;;;16.95;100.00
45621;BME280;31345;51.522;10.702;2023-06-19T02:24:46;98699.44;;;16.94;100.00
45621;BME280;31345;51.522;10.702;2023-06-19T02:27:18;98697.53;;;17.05;100.00
45621;BME280;31345;51.522;10.702;2023-06-19T02:29:51;98693.25;;;17.04;100.00
45621;BME280;31345;51.522;10.702;2023-06-19T02:32:18;98695.03;;;17.03;100.00
45621;BME280;31345;51.522;10.702;2023-06-19T02:34:51;98695.81;;;16.95;100.00
45621;BME280;31345;51.522;10.702;2023-06-19T02:37:18;98685.25;;;16.95;100.00
45621;BME280;31345;51.522;10.702;2023-06-19T02:39:52;98691.75;;;17.01;100.00
45621;BME280;31345;51.522;10.702;2023-06-19T02:42:24;98687.75;;;16.97;100.00
45621;BME280;31345;51.522;10.702;2023-06-19T02:44:57;98688.97;;;16.84;100.00
45621;BME280;31345;51.522;10.702;2023-06-19T02:47:29;98688.97;;;16.84;100.00
45621;BME280;31345;51.522;10.702;2023-06-19T02:49:57;98695.91;;;16.85;100.00
45621;BME280;31345;51.522;10.702;2023-06-19T02:52:25;98686.53;;;16.91;100.00
45621;BME280;31345;51.522;10.702;2023-06-19T02:54:59;98689.34;;;16.90;100.00
45621;BME280;31345;51.522;10.702;2023-06-19T02:57:26;98683.75;;;16.93;100.00
45621;BME280;31345;51.522;10.702;2023-06-19T02:59:58;98684.91;;;16.90;100.00
45621;BME280;31345;51.522;10.702;2023-06-19T03:02:31;98679.81;;;16.97;100.00
45621;BME280;31345;51.522;10.702;2023-06-19T03:05:06;98672.63;;;17.07;100.00
45621;BME280;31345;51.522;10.702;2023-06-19T03:07:38;98670.81;;;17.08;100.00
45621;BME280;31345;51.522;10.702;2023-06-19T03:10:07;98681.53;;;17.06;100.00
45621;BME280;31345;51.522;10.702;2023-06-19T03:12:40;98676.72;;;17.02;100.00
45621;BME280;31345;51.522;10.702;2023-06-19T03:15:13;98673.09;;;17.03;100.00
45621;BME280;31345;51.522;10.702;2023-06-19T03:17:50;98672.97;;;17.04;100.00
45621;BME280;31345;51.522;10.702;2023-06-19T03:20:23;98682.81;;;17.02;100.00
45621;BME280;31345;51.522;10.702;2023-06-19T03:22:56;98672.13;;;17.04;100.00
45621;BME280;31345;51.522;10.702;2023-06-19T03:25:26;98673.31;;;17.09;100.00
45621;BME280;31345;51.522;10.702;2023-06-19T03:27:59;98673.97;;;17.11;100.00
45621;BME280;31345;51.522;10.702;2023-06-19T03:30:32;98675.13;;;17.09;100.00
45621;BME280;31345;51.522;10.702;2023-06-19T03:33:04;98675.75;;;17.03;100.00
45621;BME280;31345;51.522;10.702;2023-06-19T03:35:40;98674.59;;;17.05;100.00
45621;BME280;31345;51.522;10.702;2023-06-19T03:38:10;98673.63;;;17.06;100.00
45621;BME280;31345;51.522;10.702;2023-06-19T03:40:44;98672.31;;;17.10;100.00
45621;BME280;31345;51.522;10.702;2023-06-19T03:43:13;98667.88;;;17.11;100.00
45621;BME280;31345;51.522;10.702;2023-06-19T03:45:48;98672.53;;;17.17;100.00
45621;BME280;31345;51.522;10.702;2023-06-19T03:48:21;98676.47;;;17.13;100.00
45621;BME280;31345;51.522;10.702;2023-06-19T03:50:48;98679.09;;;17.13;100.00
45621;BME280;31345;51.522;10.702;2023-06-19T03:53:21;98683.63;;;17.21;100.00
45621;BME280;31345;51.522;10.702;2023-06-19T03:55:50;98686.78;;;17.24;100.00
45621;BME280;31345;51.522;10.702;2023-06-19T03:58:17;98686.50;;;17.28;100.00
45621;BME280;31345;51.522;10.702;2023-06-19T04:00:45;98680.94;;;17.39;100.00
45621;BME280;31345;51.522;10.702;2023-06-19T04:03:17;98681.75;;;17.40;100.00
45621;BME280;31345;51.522;10.702;2023-06-19T04:05:50;98690.59;;;17.48;100.00
45621;BME280;31345;51.522;10.702;2023-06-19T04:08:23;98689.19;;;17.36;100.00
45621;BME280;31345;51.522;10.702;2023-06-19T04:10:52;98699.75;;;17.36;100.00
45621;BME280;31345;51.522;10.702;2023-06-19T04:13:25;98702.69;;;17.33;100.00
45621;BME280;31345;51.522;10.702;2023-06-19T04:15:58;98697.72;;;17.30;100.00
45621;BME280;31345;51.522;10.702;2023-06-19T04:18:32;98694.47;;;17.36;100.00
45621;BME280;31345;51.522;10.702;2023-06-19T04:21:00;98688.38;;;17.44;100.00
45621;BME280;31345;51.522;10.702;2023-06-19T04:23:32;98687.31;;;17.46;100.00
45621;BME280;31345;51.522;10.702;2023-06-19T04:26:06;98683.69;;;17.47;100.00
45621;BME280;31345;51.522;10.702;2023-06-19T04:28:34;98684.25;;;17.41;100.00
45621;BME280;31345;51.522;10.702;2023-06-19T04:31:06;98685.31;;;17.48;100.00
45621;BME280;31345;51.522;10.702;2023-06-19T04:33:39;98693.41;;;17.47;100.00
45621;BME280;31345;51.522;10.702;2023-06-19T04:36:13;98699.97;;;17.43;100.00
45621;BME280;31345;51.522;10.702;2023-06-19T04:38:40;98692.25;;;17.49;100.00
45621;BME280;31345;51.522;10.702;2023-06-19T04:41:09;98705.81;;;17.46;100.00
45621;BME280;31345;51.522;10.702;2023-06-19T04:43:41;98702.69;;;17.51;100.00
45621;BME280;31345;51.522;10.702;2023-06-19T04:46:14;98699.22;;;17.51;100.00
45621;BME280;31345;51.522;10.702;2023-06-19T04:48:51;98702.44;;;17.44;100.00
45621;BME280;31345;51.522;10.702;2023-06-19T04:51:19;98693.16;;;17.40;100.00
45621;BME280;31345;51.522;10.702;2023-06-19T04:53:52;98710.09;;;17.47;100.00
45621;BME280;31345;51.522;10.702;2023-06-19T04:56:21;98697.53;;;17.49;100.00
45621;BME280;31345;51.522;10.702;2023-06-19T04:58:53;98711.16;;;17.55;100.00
45621;BME280;31345;51.522;10.702;2023-06-19T05:01:27;98709.00;;;17.58;100.00
45621;BME280;31345;51.522;10.702;2023-06-19T05:03:55;98706.66;;;17.55;100.00
45621;BME280;31345;51.522;10.702;2023-06-19T05:06:23;98709.84;;;17.59;100.00
45621;BME280;31345;51.522;10.702;2023-06-19T05:08:55;98706.22;;;17.60;100.00
45621;BME280;31345;51.522;10.702;2023-06-19T05:11:29;98706.41;;;17.67;100.00
45621;BME280;31345;51.522;10.702;2023-06-19T05:14:01;98716.97;;;17.67;100.00
45621;BME280;31345;51.522;10.702;2023-06-19T05:16:29;98715.94;;;17.59;100.00
45621;BME280;31345;51.522;10.702;2023-06-19T05:19:01;98728.19;;;17.60;100.00
45621;BME280;31345;51.522;10.702;2023-06-19T05:21:34;98732.34;;;17.63;100.00
45621;BME280;31345;51.522;10.702;2023-06-19T05:24:01;98747.06;;;17.66;100.00
45621;BME280;31345;51.522;10.702;2023-06-19T05:26:35;98756.63;;;17.67;100.00
45621;BME280;31345;51.522;10.702;2023-06-19T05:29:03;98756.34;;;17.70;100.00
45621;BME280;31345;51.522;10.702;2023-06-19T05:31:35;98746.41;;;17.72;100.00
45621;BME280;31345;51.522;10.702;2023-06-19T05:34:08;98736.22;;;17.77;100.00
45621;BME280;31345;51.522;10.702;2023-06-19T05:36:40;98731.97;;;17.84;100.00
45621;BME280;31345;51.522;10.702;2023-06-19T05:39:13;98738.59;;;17.88;100.00
45621;BME280;31345;51.522;10.702;2023-06-19T05:41:47;98729.63;;;17.81;100.00
45621;BME280;31345;51.522;10.702;2023-06-19T05:44:19;98735.22;;;17.78;100.00
45621;BME280;31345;51.522;10.702;2023-06-19T05:46:52;98732.16;;;17.91;100.00
45621;BME280;31345;51.522;10.702;2023-06-19T05:49:19;98719.09;;;17.90;100.00
45621;BME280;31345;51.522;10.702;2023-06-19T05:51:52;98716.28;;;17.91;100.00
45621;BME280;31345;51.522;10.702;2023-06-19T05:54:20;98702.56;;;17.96;100.00
45621;BME280;31345;51.522;10.702;2023-06-19T05:56:53;98696.84;;;18.09;100.00
45621;BME280;31345;51.522;10.702;2023-06-19T05:59:26;98705.97;;;18.14;100.00
45621;BME280;31345;51.522;10.702;2023-06-19T06:01:58;98710.78;;;18.19;100.00
45621;BME280;31345;51.522;10.702;2023-06-19T06:04:31;98708.34;;;18.26;100.00
45621;BME280;31345;51.522;10.702;2023-06-19T06:07:04;98698.44;;;18.36;100.00
45621;BME280;31345;51.522;10.702;2023-06-19T06:09:31;98691.03;;;18.48;99.58
45621;BME280;31345;51.522;10.702;2023-06-19T06:12:06;98695.88;;;18.61;100.00
45621;BME280;31345;51.522;10.702;2023-06-19T06:14:34;98703.31;;;18.66;100.00
45621;BME280;31345;51.522;10.702;2023-06-19T06:17:02;98697.38;;;18.72;98.23
45621;BME280;31345;51.522;10.702;2023-06-19T06:19:36;98708.97;;;18.88;100.00
45621;BME280;31345;51.522;10.702;2023-06-19T06:22:04;98725.03;;;18.95;100.00
45621;BME280;31345;51.522;10.702;2023-06-19T06:24:37;98731.03;;;19.05;100.00
45621;BME280;31345;51.522;10.702;2023-06-19T06:27:12;98735.81;;;19.18;100.00
45621;BME280;31345;51.522;10.702;2023-06-19T06:29:45;98744.25;;;19.22;100.00
45621;BME280;31345;51.522;10.702;2023-06-19T06:32:17;98752.88;;;19.24;99.92
45621;BME280;31345;51.522;10.702;2023-06-19T06:34:50;98763.81;;;19.21;100.00
45621;BME280;31345;51.522;10.702;2023-06-19T06:37:23;98766.94;;;19.24;100.00
45621;BME280;31345;51.522;10.702;2023-06-19T06:39:56;98775.75;;;19.25;100.00
45621;BME280;31345;51.522;10.702;2023-06-19T06:42:25;98788.63;;;19.28;100.00
45621;BME280;31345;51.522;10.702;2023-06-19T06:44:52;98786.00;;;19.28;100.00
45621;BME280;31345;51.522;10.702;2023-06-19T06:47:24;98770.94;;;19.28;100.00
45621;BME280;31345;51.522;10.702;2023-06-19T06:49:57;98772.09;;;19.34;100.00
45621;BME280;31345;51.522;10.702;2023-06-19T06:55:23;98773.41;;;19.47;99.84
45621;BME280;31345;51.522;10.702;2023-06-19T06:57:56;98771.44;;;19.49;98.46
45621;BME280;31345;51.522;10.702;2023-06-19T07:00:24;98778.72;;;19.47;100.00
45621;BME280;31345;51.522;10.702;2023-06-19T07:02:56;98782.69;;;19.51;100.00
45621;BME280;31345;51.522;10.702;2023-06-19T07:05:29;98784.34;;;19.60;100.00
45621;BME280;31345;51.522;10.702;2023-06-19T07:07:56;98789.84;;;19.59;100.00
45621;BME280;31345;51.522;10.702;2023-06-19T07:10:29;98789.34;;;19.63;100.00
45621;BME280;31345;51.522;10.702;2023-06-19T07:13:03;98785.84;;;19.71;100.00
45621;BME280;31345;51.522;10.702;2023-06-19T07:15:35;98778.53;;;19.57;94.32
45621;BME280;31345;51.522;10.702;2023-06-19T07:18:08;98786.50;;;19.65;99.04
45621;BME280;31345;51.522;10.702;2023-06-19T07:20:35;98790.81;;;19.66;100.00
45621;BME280;31345;51.522;10.702;2023-06-19T07:23:08;98804.25;;;19.64;100.00
45621;BME280;31345;51.522;10.702;2023-06-19T07:25:41;98805.06;;;19.73;100.00
45621;BME280;31345;51.522;10.702;2023-06-19T07:28:10;98802.56;;;19.72;100.00
45621;BME280;31345;51.522;10.702;2023-06-19T07:30:43;98805.91;;;19.74;100.00
45621;BME280;31345;51.522;10.702;2023-06-19T07:33:18;98801.91;;;19.78;100.00
45621;BME280;31345;51.522;10.702;2023-06-19T07:35:46;98790.63;;;19.84;100.00
45621;BME280;31345;51.522;10.702;2023-06-19T07:38:18;98792.13;;;19.87;100.00
45621;BME280;31345;51.522;10.702;2023-06-19T07:40:46;98796.91;;;19.91;98.88
45621;BME280;31345;51.522;10.702;2023-06-19T07:43:20;98796.56;;;20.03;98.39
45621;BME280;31345;51.522;10.702;2023-06-19T07:45:53;98793.88;;;20.11;100.00
45621;BME280;31345;51.522;10.702;2023-06-19T07:48:25;98795.34;;;20.22;99.11
45621;BME280;31345;51.522;10.702;2023-06-19T07:50:58;98794.63;;;20.37;98.88
45621;BME280;31345;51.522;10.702;2023-06-19T07:53:30;98782.84;;;20.39;93.04
45621;BME280;31345;51.522;10.702;2023-06-19T07:56:03;98793.59;;;20.46;94.00
45621;BME280;31345;51.522;10.702;2023-06-19T07:58:37;98791.72;;;20.55;94.13
45621;BME280;31345;51.522;10.702;2023-06-19T08:01:09;98792.69;;;20.70;93.24
45621;BME280;31345;51.522;10.702;2023-06-19T08:03:42;98781.53;;;20.75;90.20
45621;BME280;31345;51.522;10.702;2023-06-19T08:06:15;98790.94;;;20.86;90.15
45621;BME280;31345;51.522;10.702;2023-06-19T08:08:47;98785.91;;;20.91;88.93
45621;BME280;31345;51.522;10.702;2023-06-19T08:11:14;98786.88;;;20.99;87.25
45621;BME280;31345;51.522;10.702;2023-06-19T08:13:43;98784.63;;;21.11;82.91
45621;BME280;31345;51.522;10.702;2023-06-19T08:16:16;98792.06;;;21.15;85.07
45621;BME280;31345;51.522;10.702;2023-06-19T08:18:44;98790.34;;;21.22;85.95
45621;BME280;31345;51.522;10.702;2023-06-19T08:21:16;98794.41;;;21.33;84.33
45621;BME280;31345;51.522;10.702;2023-06-19T08:23:49;98789.88;;;21.42;83.68
45621;BME280;31345;51.522;10.702;2023-06-19T08:26:22;98793.59;;;21.56;83.51
45621;BME280;31345;51.522;10.702;2023-06-19T08:28:56;98779.84;;;21.53;82.81
45621;BME280;31345;51.522;10.702;2023-06-19T08:31:23;98780.31;;;21.71;82.66
45621;BME280;31345;51.522;10.702;2023-06-19T08:33:53;98786.50;;;21.87;79.76
45621;BME280;31345;51.522;10.702;2023-06-19T08:36:26;98788.13;;;21.88;80.35
45621;BME280;31345;51.522;10.702;2023-06-19T08:38:53;98783.09;;;22.23;77.42
45621;BME280;31345;51.522;10.702;2023-06-19T08:41:26;98780.91;;;22.42;76.22
45621;BME280;31345;51.522;10.702;2023-06-19T08:44:00;98778.97;;;22.51;72.24
45621;BME280;31345;51.522;10.702;2023-06-19T08:46:34;98781.72;;;22.58;74.14
45621;BME280;31345;51.522;10.702;2023-06-19T08:49:03;98776.88;;;22.83;78.06
45621;BME280;31345;51.522;10.702;2023-06-19T08:51:37;98776.19;;;23.18;74.45
45621;BME280;31345;51.522;10.702;2023-06-19T08:54:07;98779.75;;;23.25;73.88
45621;BME280;31345;51.522;10.702;2023-06-19T08:56:42;98790.91;;;23.14;72.63
45621;BME280;31345;51.522;10.702;2023-06-19T08:59:12;98783.34;;;23.18;69.42
45621;BME280;31345;51.522;10.702;2023-06-19T09:01:46;98783.28;;;23.11;70.77
45621;BME280;31345;51.522;10.702;2023-06-19T09:04:26;98779.97;;;23.24;69.13
45621;BME280;31345;51.522;10.702;2023-06-19T09:06:55;98775.28;;;23.54;70.59
45621;BME280;31345;51.522;10.702;2023-06-19T09:09:28;98778.19;;;23.60;73.93
45621;BME280;31345;51.522;10.702;2023-06-19T09:12:01;98765.78;;;23.80;66.85
45621;BME280;31345;51.522;10.702;2023-06-19T09:14:38;98773.19;;;23.78;69.84
45621;BME280;31345;51.522;10.702;2023-06-19T09:17:13;98773.09;;;24.00;70.36
45621;BME280;31345;51.522;10.702;2023-06-19T09:19:50;98770.41;;;24.29;68.24
45621;BME280;31345;51.522;10.702;2023-06-19T09:22:23;98774.84;;;24.70;65.63
45621;BME280;31345;51.522;10.702;2023-06-19T09:25:00;98771.66;;;24.89;67.01
45621;BME280;31345;51.522;10.702;2023-06-19T09:27:33;98772.09;;;25.13;65.77
45621;BME280;31345;51.522;10.702;2023-06-19T09:30:07;98763.88;;;25.41;60.14
45621;BME280;31345;51.522;10.702;2023-06-19T09:32:47;98761.19;;;25.75;59.44
45621;BME280;31345;51.522;10.702;2023-06-19T09:35:20;98767.16;;;25.91;61.83
45621;BME280;31345;51.522;10.702;2023-06-19T09:37:53;98765.94;;;25.80;58.34
45621;BME280;31345;51.522;10.702;2023-06-19T09:40:21;98766.97;;;25.85;59.40
45621;BME280;31345;51.522;10.702;2023-06-19T09:42:53;98758.69;;;25.94;62.95
45621;BME280;31345;51.522;10.702;2023-06-19T09:45:29;98749.88;;;25.80;59.82
45621;BME280;31345;51.522;10.702;2023-06-19T09:48:05;98751.72;;;25.79;62.04
45621;BME280;31345;51.522;10.702;2023-06-19T09:50:54;98754.63;;;25.71;60.71
45621;BME280;31345;51.522;10.702;2023-06-19T09:53:30;98752.75;;;25.58;61.67
45621;BME280;31345;51.522;10.702;2023-06-19T09:55:58;98755.88;;;25.62;62.46
45621;BME280;31345;51.522;10.702;2023-06-19T09:58:30;98752.16;;;25.49;63.86
45621;BME280;31345;51.522;10.702;2023-06-19T10:01:05;98762.59;;;25.98;60.26
45621;BME280;31345;51.522;10.702;2023-06-19T10:03:39;98754.66;;;26.37;56.50
45621;BME280;31345;51.522;10.702;2023-06-19T10:06:13;98765.09;;;26.52;57.35
45621;BME280;31345;51.522;10.702;2023-06-19T10:08:46;98767.03;;;26.77;61.56
45621;BME280;31345;51.522;10.702;2023-06-19T10:11:15;98766.16;;;26.83;57.72
45621;BME280;31345;51.522;10.702;2023-06-19T10:13:45;98766.34;;;26.88;59.50
45621;BME280;31345;51.522;10.702;2023-06-19T10:16:22;98765.00;;;26.72;64.28
45621;BME280;31345;51.522;10.702;2023-06-19T10:18:57;98773.53;;;26.95;57.44
45621;BME280;31345;51.522;10.702;2023-06-19T10:21:43;98765.34;;;27.22;59.90
45621;BME280;31345;51.522;10.702;2023-06-19T10:24:17;98762.53;;;27.35;57.45
45621;BME280;31345;51.522;10.702;2023-06-19T10:26:56;98757.81;;;27.56;61.40
45621;BME280;31345;51.522;10.702;2023-06-19T10:29:24;98764.22;;;27.55;57.77
45621;BME280;31345;51.522;10.702;2023-06-19T10:31:54;98766.34;;;27.72;52.94
45621;BME280;31345;51.522;10.702;2023-06-19T10:34:33;98756.00;;;27.94;55.73
45621;BME280;31345;51.522;10.702;2023-06-19T10:37:00;98751.47;;;28.13;52.47
45621;BME280;31345;51.522;10.702;2023-06-19T10:39:28;98758.22;;;28.53;52.31
45621;BME280;31345;51.522;10.702;2023-06-19T10:41:55;98744.81;;;28.65;50.37
45621;BME280;31345;51.522;10.702;2023-06-19T10:44:28;98748.88;;;28.56;54.84
45621;BME280;31345;51.522;10.702;2023-06-19T10:47:02;98745.53;;;28.42;52.12
45621;BME280;31345;51.522;10.702;2023-06-19T10:49:35;98740.84;;;28.19;51.47
45621;BME280;31345;51.522;10.702;2023-06-19T10:52:02;98747.41;;;28.41;52.48
45621;BME280;31345;51.522;10.702;2023-06-19T10:54:35;98745.78;;;28.71;56.88
45621;BME280;31345;51.522;10.702;2023-06-19T10:57:07;98758.22;;;28.84;57.17
45621;BME280;31345;51.522;10.702;2023-06-19T10:59:35;98746.41;;;28.85;58.47
45621;BME280;31345;51.522;10.702;2023-06-19T11:02:06;98743.97;;;28.96;56.25
45621;BME280;31345;51.522;10.702;2023-06-19T11:04:37;98736.91;;;29.25;55.70
45621;BME280;31345;51.522;10.702;2023-06-19T11:07:10;98737.03;;;29.18;50.78
45621;BME280;31345;51.522;10.702;2023-06-19T11:09:42;98729.91;;;29.24;56.10
45621;BME280;31345;51.522;10.702;2023-06-19T11:12:11;98730.13;;;29.35;54.19
45621;BME280;31345;51.522;10.702;2023-06-19T11:14:39;98726.41;;;29.36;57.99
45621;BME280;31345;51.522;10.702;2023-06-19T11:17:14;98730.13;;;29.23;55.25
45621;BME280;31345;51.522;10.702;2023-06-19T11:19:42;98731.16;;;29.45;58.21
45621;BME280;31345;51.522;10.702;2023-06-19T11:22:15;98732.00;;;29.58;52.65
45621;BME280;31345;51.522;10.702;2023-06-19T11:24:48;98727.09;;;29.55;51.99
45621;BME280;31345;51.522;10.702;2023-06-19T11:27:22;98728.81;;;29.61;56.64
45621;BME280;31345;51.522;10.702;2023-06-19T11:29:59;98724.28;;;29.86;52.77
45621;BME280;31345;51.522;10.702;2023-06-19T11:32:32;98734.22;;;29.85;51.21
45621;BME280;31345;51.522;10.702;2023-06-19T11:35:08;98741.38;;;29.67;55.11
45621;BME280;31345;51.522;10.702;2023-06-19T11:37:39;98730.25;;;29.64;47.91
45621;BME280;31345;51.522;10.702;2023-06-19T11:40:13;98731.63;;;30.02;56.00
45621;BME280;31345;51.522;10.702;2023-06-19T11:42:48;98731.66;;;29.90;51.13
45621;BME280;31345;51.522;10.702;2023-06-19T11:45:21;98725.44;;;29.42;51.07
45621;BME280;31345;51.522;10.702;2023-06-19T11:47:55;98726.91;;;29.02;50.67
45621;BME280;31345;51.522;10.702;2023-06-19T11:50:27;98726.06;;;28.89;54.73
45621;BME280;31345;51.522;10.702;2023-06-19T11:53:00;98731.13;;;28.98;57.18
45621;BME280;31345;51.522;10.702;2023-06-19T11:55:28;98721.69;;;29.19;56.60
45621;BME280;31345;51.522;10.702;2023-06-19T11:57:55;98726.97;;;29.26;52.67
45621;BME280;31345;51.522;10.702;2023-06-19T12:00:23;98722.06;;;29.23;54.35
45621;BME280;31345;51.522;10.702;2023-06-19T12:02:51;98720.41;;;29.34;52.33
45621;BME280;31345;51.522;10.702;2023-06-19T12:05:26;98718.31;;;29.48;54.50
45621;BME280;31345;51.522;10.702;2023-06-19T12:07:58;98713.84;;;29.29;54.99
45621;BME280;31345;51.522;10.702;2023-06-19T12:10:33;98717.94;;;29.80;56.04
45621;BME280;31345;51.522;10.702;2023-06-19T12:13:06;98717.63;;;30.17;53.14
45621;BME280;31345;51.522;10.702;2023-06-19T12:15:33;98717.22;;;29.73;50.09
45621;BME280;31345;51.522;10.702;2023-06-19T12:18:01;98718.53;;;29.22;52.57
45621;BME280;31345;51.522;10.702;2023-06-19T12:20:31;98712.91;;;28.69;56.74
45621;BME280;31345;51.522;10.702;2023-06-19T12:23:05;98711.97;;;28.45;57.16
45621;BME280;31345;51.522;10.702;2023-06-19T12:25:45;98714.78;;;28.19;56.05
45621;BME280;31345;51.522;10.702;2023-06-19T12:28:18;98720.41;;;28.18;61.05
45621;BME280;31345;51.522;10.702;2023-06-19T12:30:46;98716.97;;;28.10;58.39
45621;BME280;31345;51.522;10.702;2023-06-19T12:33:19;98720.03;;;28.14;62.05
45621;BME280;31345;51.522;10.702;2023-06-19T12:35:53;98717.66;;;28.06;59.13
45621;BME280;31345;51.522;10.702;2023-06-19T12:38:25;98718.84;;;28.10;62.91
45621;BME280;31345;51.522;10.702;2023-06-19T12:40:58;98719.75;;;28.03;63.34
45621;BME280;31345;51.522;10.702;2023-06-19T12:43:31;98715.50;;;27.96;59.36
45621;BME280;31345;51.522;10.702;2023-06-19T12:46:03;98723.53;;;27.96;61.74
45621;BME280;31345;51.522;10.702;2023-06-19T12:48:31;98719.50;;;28.05;65.61
45621;BME280;31345;51.522;10.702;2023-06-19T12:51:05;98712.63;;;28.28;58.49
45621;BME280;31345;51.522;10.702;2023-06-19T12:53:38;98708.28;;;28.88;56.43
45621;BME280;31345;51.522;10.702;2023-06-19T12:56:05;98712.56;;;29.56;60.47
45621;BME280;31345;51.522;10.702;2023-06-19T12:58:38;98703.66;;;29.79;55.11
45621;BME280;31345;51.522;10.702;2023-06-19T13:01:05;98705.09;;;30.11;50.25
45621;BME280;31345;51.522;10.702;2023-06-19T13:03:33;98703.97;;;29.95;51.55
45621;BME280;31345;51.522;10.702;2023-06-19T13:06:00;98701.28;;;29.71;51.40
45621;BME280;31345;51.522;10.702;2023-06-19T13:08:34;98699.78;;;29.87;51.57
45621;BME280;31345;51.522;10.702;2023-06-19T13:11:06;98707.28;;;29.85;57.96